TimeEDT,TemperatureF,Dew PointF,Humidity,Sea Level PressureIn,VisibilityMPH,Wind Direction,Wind SpeedMPH,Gust SpeedMPH,PrecipitationIn,Events,Conditions,WindDirDegrees,DateUTC
12:53 AM,64.0,52.0,65,30.04,10.0,WSW,8.1,-,N/A,,Clear,250,2012-11-03 04:53:00
1:53 AM,62.1,54.0,75,30.04,10.0,WSW,4.6,-,N/A,,Clear,240,2012-11-03 05:53:00
2:53 AM,60.1,54.0,80,30.04,10.0,WSW,4.6,-,N/A,,Clear,240,2012-11-03 06:53:00
3:53 AM,61.0,55.9,83,30.04,10.0,West,3.5,-,N/A,,Clear,260,2012-11-03 07:53:00
4:53 AM,60.1,55.9,86,30.04,10.0,WSW,3.5,-,N/A,,Clear,250,2012-11-03 08:53:00
5:53 AM,59.0,55.0,87,30.06,10.0,WSW,3.5,-,N/A,,Clear,240,2012-11-03 09:53:00
6:53 AM,60.1,57.0,90,30.07,9.0,WSW,3.5,-,N/A,,Clear,240,2012-11-03 10:53:00
7:53 AM,57.0,55.0,93,30.09,4.0,SW,3.5,-,N/A,,Clear,230,2012-11-03 11:53:00
8:13 AM,57.2,55.4,94,30.10,4.0,Calm,Calm,-,N/A,,Partly Cloudy,0,2012-11-03 12:13:00
8:29 AM,60.8,57.2,88,30.10,1.5,Calm,Calm,-,N/A,,Mostly Cloudy,0,2012-11-03 12:29:00
8:32 AM,60.8,57.2,88,30.11,0.5,WSW,3.5,-,N/A,Fog,Fog,250,2012-11-03 12:32:00
8:41 AM,60.8,57.2,88,30.11,0.2,WSW,4.6,-,N/A,Fog,Fog,250,2012-11-03 12:41:00
8:53 AM,61.0,59.0,93,30.11,0.2,West,3.5,-,N/A,Fog,Fog,270,2012-11-03 12:53:00
9:14 AM,60.8,60.8,100,30.12,0.8,WNW,3.5,-,N/A,,Mist,290,2012-11-03 13:14:00
9:41 AM,62.6,60.8,94,30.12,5.0,West,5.8,-,N/A,,Scattered Clouds,280,2012-11-03 13:41:00
9:53 AM,62.1,60.1,93,30.12,7.0,West,5.8,-,N/A,,Partly Cloudy,270,2012-11-03 13:53:00
10:53 AM,69.1,59.0,70,30.13,10.0,Variable,3.5,-,N/A,,Clear,0,2012-11-03 14:53:00
11:53 AM,73.9,59.0,59,30.12,10.0,NNW,3.5,-,N/A,,Clear,340,2012-11-03 15:53:00
12:53 PM,78.1,57.0,48,30.10,10.0,NNW,3.5,-,N/A,,Clear,330,2012-11-03 16:53:00
1:53 PM,81.0,52.0,36,30.08,10.0,North,6.9,-,N/A,,Clear,360,2012-11-03 17:53:00
2:53 PM,82.0,52.0,35,30.06,10.0,NNW,5.8,-,N/A,,Clear,340,2012-11-03 18:53:00
3:53 PM,82.9,52.0,34,30.05,10.0,Calm,Calm,-,N/A,,Clear,0,2012-11-03 19:53:00
4:53 PM,79.0,54.0,42,30.05,10.0,ESE,8.1,-,N/A,,Clear,110,2012-11-03 20:53:00
5:53 PM,75.9,54.0,46,30.05,10.0,ESE,4.6,-,N/A,,Clear,120,2012-11-03 21:53:00
6:53 PM,69.1,54.0,58,30.06,10.0,SSE,3.5,-,N/A,,Clear,150,2012-11-03 22:53:00
7:53 PM,64.9,55.0,70,30.07,10.0,Calm,Calm,-,N/A,,Clear,0,2012-11-03 23:53:00
8:53 PM,61.0,55.0,81,30.08,10.0,Calm,Calm,-,N/A,,Clear,0,2012-11-04 00:53:00
9:53 PM,62.1,55.0,78,30.08,10.0,Calm,Calm,-,N/A,,Clear,0,2012-11-04 01:53:00
10:53 PM,61.0,55.0,81,30.09,10.0,Calm,Calm,-,N/A,,Clear,0,2012-11-04 02:53:00
11:53 PM,63.0,57.0,81,30.08,10.0,SSW,4.6,-,N/A,,Clear,200,2012-11-04 03:53:00